Terminal Aerodrome Forecast
Issued by NWS

Home | Current Version | Previous Version | Text Only | Print | Product List | Glossary On
Versions: 1 2 3 4 5 6 7 8 9 10 11 12
000
FTUS44 KLZK 181100
TAFADF
TAF
KADF 181124Z 1812/1912 00000KT P6SM BKN100
     FM181500 07007KT P6SM SCT100
     FM190000 04002KT P6SM SCT250
     FM190600 00000KT P6SM SKC=

USA.gov is the U.S. government's official web portal to all federal, state and local government web resources and services.